createdAt,value
2023-06-16T08:01:23.381Z,52.65
2023-06-16T08:03:51.631Z,52.71
2023-06-16T08:06:19.796Z,52.38
2023-06-16T08:08:48.768Z,51.93
2023-06-16T08:11:19.194Z,51.96
2023-06-16T08:13:47.232Z,52.57
2023-06-16T08:16:15.505Z,52.60
2023-06-16T08:19:39.326Z,53.16
2023-06-16T08:22:14.780Z,53.04
2023-06-16T08:24:42.940Z,53.16
2023-06-16T08:27:14.930Z,53.15
2023-06-16T08:29:45.760Z,53.20
2023-06-16T08:32:13.950Z,53.53
2023-06-16T08:34:48.649Z,53.07
2023-06-16T08:37:29.649Z,53.37
2023-06-16T08:40:01.982Z,53.49
2023-06-16T08:42:40.748Z,53.32
2023-06-16T08:45:10.281Z,53.93
2023-06-16T08:47:40.694Z,53.78
2023-06-16T08:50:11.434Z,53.20
2023-06-16T08:52:44.637Z,53.85
2023-06-16T08:58:58.644Z,54.02
2023-06-16T09:01:31.232Z,54.31
2023-06-16T09:04:11.147Z,54.19
2023-06-16T09:07:01.893Z,54.17
2023-06-16T09:09:36.282Z,53.96
2023-06-16T09:12:04.827Z,54.14
2023-06-16T09:46:45.453Z,54.09
2023-06-16T09:49:27.135Z,53.30
2023-06-16T09:51:55.662Z,53.90
2023-06-16T09:54:26.234Z,53.64
2023-06-16T09:56:56.596Z,53.95
2023-06-16T09:59:28.960Z,53.17
2023-06-16T10:02:00.030Z,53.36
2023-06-16T10:04:31.514Z,53.39
2023-06-16T10:07:04.991Z,53.04
2023-06-16T10:09:37.518Z,54.09
2023-06-16T10:12:05.874Z,53.26
2023-06-16T10:14:34.177Z,52.95
2023-06-16T10:17:08.285Z,52.95
2023-06-16T10:19:46.124Z,53.48
2023-06-16T10:22:18.512Z,53.05
2023-06-16T10:24:55.862Z,53.32
2023-06-16T10:27:25.034Z,53.34
2023-06-16T10:29:58.048Z,52.88
2023-06-16T10:32:28.247Z,52.84
2023-06-16T10:34:59.199Z,52.61
2023-06-16T10:37:29.546Z,52.90
2023-06-16T10:40:20.711Z,52.91
2023-06-16T10:43:07.103Z,52.81
2023-06-16T10:45:55.242Z,53.06
2023-06-16T10:48:26.321Z,53.43
2023-06-16T10:51:08.920Z,53.59
2023-06-16T10:53:36.998Z,53.38
2023-06-16T10:56:07.000Z,53.23
2023-06-16T10:58:37.788Z,53.41
2023-06-16T11:01:09.403Z,53.04
2023-06-16T11:03:43.914Z,53.19
2023-06-16T11:06:20.665Z,53.42
2023-06-16T11:08:54.890Z,53.67
2023-06-16T11:11:51.663Z,53.38
2023-06-16T11:14:36.566Z,53.64
2023-06-16T11:17:14.839Z,53.46
2023-06-16T11:19:46.033Z,53.53
2023-06-16T11:34:56.050Z,53.40
2023-06-16T11:40:20.430Z,53.09
2023-06-16T11:43:24.894Z,53.16
2023-06-16T11:46:10.635Z,53.02
2023-06-16T11:48:50.290Z,53.06
2023-06-16T11:51:42.841Z,53.15
2023-06-16T11:54:13.918Z,53.54
2023-06-16T11:56:43.830Z,53.07
2023-06-16T12:03:14.022Z,53.40
2023-06-16T12:06:01.737Z,53.30
2023-06-16T12:08:47.219Z,53.29
2023-06-16T12:11:23.969Z,53.10
2023-06-16T12:14:06.243Z,53.44
2023-06-16T12:16:40.938Z,53.19
2023-06-16T12:19:09.159Z,53.37
2023-06-16T12:23:21.212Z,53.23
2023-06-16T12:25:29.230Z,52.93
2023-06-16T12:27:59.301Z,53.37
2023-06-16T12:30:40.378Z,53.18
2023-06-16T12:33:18.472Z,53.52
2023-06-16T12:35:48.902Z,53.23
2023-06-16T12:38:17.198Z,53.52
2023-06-16T12:40:45.768Z,53.19
2023-06-16T12:43:23.306Z,53.32
2023-06-16T12:45:53.435Z,53.34
2023-06-16T12:48:26.578Z,53.68
2023-06-16T12:51:03.961Z,53.39
2023-06-16T12:53:55.289Z,53.28
2023-06-16T12:56:31.573Z,53.32
2023-06-16T12:59:04.768Z,53.37
2023-06-16T13:01:37.227Z,53.54
2023-06-16T13:04:05.504Z,53.32
2023-06-16T13:06:33.741Z,53.65
2023-06-16T13:09:06.877Z,53.48
2023-06-16T13:11:35.930Z,53.51
2023-06-16T13:14:04.314Z,53.63
2023-06-16T13:16:33.451Z,53.56
2023-06-16T13:19:03.101Z,53.81
2023-06-16T13:21:36.122Z,53.51
2023-06-16T13:24:15.716Z,53.55
2023-06-16T13:27:29.121Z,53.49
2023-06-16T13:33:00.141Z,53.61
2023-06-16T13:36:04.749Z,53.39
2023-06-16T13:38:45.573Z,53.27
2023-06-16T13:41:33.710Z,53.20
2023-06-16T13:44:21.227Z,53.48
2023-06-16T13:47:41.831Z,53.39
2023-06-16T13:56:41.103Z,53.42
2023-06-16T14:02:44.077Z,53.57
